sensor_id;sensor_type;location;lat;lon;timestamp;pressure;altitude;pressure_sealevel;temperature;humidity
62708;BME280;48769;51.624;5.886;2023-07-20T00:00:24;101236.19;;;17.81;100.00
62708;BME280;48769;51.624;5.886;2023-07-20T00:02:50;101234.75;;;17.77;100.00
62708;BME280;48769;51.624;5.886;2023-07-20T00:05:16;101237.50;;;17.75;100.00
62708;BME280;48769;51.624;5.886;2023-07-20T00:07:43;101229.59;;;17.73;100.00
62708;BME280;48769;51.624;5.886;2023-07-20T00:10:09;101231.97;;;17.78;100.00
62708;BME280;48769;51.624;5.886;2023-07-20T00:12:34;101229.53;;;17.86;100.00
62708;BME280;48769;51.624;5.886;2023-07-20T00:14:59;101226.41;;;17.92;100.00
62708;BME280;48769;51.624;5.886;2023-07-20T00:17:25;101233.44;;;17.93;100.00
62708;BME280;48769;51.624;5.886;2023-07-20T00:19:50;101241.22;;;17.85;100.00
62708;BME280;48769;51.624;5.886;2023-07-20T00:22:15;101240.69;;;17.80;100.00
62708;BME280;48769;51.624;5.886;2023-07-20T00:24:41;101236.09;;;17.82;100.00
62708;BME280;48769;51.624;5.886;2023-07-20T00:27:06;101236.84;;;17.84;100.00
62708;BME280;48769;51.624;5.886;2023-07-20T00:29:31;101230.63;;;17.84;100.00
62708;BME280;48769;51.624;5.886;2023-07-20T00:31:58;101235.59;;;17.77;100.00
62708;BME280;48769;51.624;5.886;2023-07-20T00:34:24;101236.28;;;17.68;100.00
62708;BME280;48769;51.624;5.886;2023-07-20T00:36:49;101231.16;;;17.65;100.00
62708;BME280;48769;51.624;5.886;2023-07-20T00:39:14;101227.38;;;17.67;100.00
62708;BME280;48769;51.624;5.886;2023-07-20T00:41:40;101227.06;;;17.72;100.00
62708;BME280;48769;51.624;5.886;2023-07-20T00:44:05;101232.91;;;17.77;100.00
62708;BME280;48769;51.624;5.886;2023-07-20T00:46:31;101224.66;;;17.80;100.00
62708;BME280;48769;51.624;5.886;2023-07-20T00:48:58;101230.00;;;17.80;100.00
62708;BME280;48769;51.624;5.886;2023-07-20T00:51:25;101233.44;;;17.82;100.00
62708;BME280;48769;51.624;5.886;2023-07-20T00:53:50;101229.50;;;17.75;100.00
62708;BME280;48769;51.624;5.886;2023-07-20T00:56:16;101239.28;;;17.63;100.00
62708;BME280;48769;51.624;5.886;2023-07-20T00:58:41;101233.44;;;17.58;100.00
62708;BME280;48769;51.624;5.886;2023-07-20T01:01:07;101235.00;;;17.61;100.00
62708;BME280;48769;51.624;5.886;2023-07-20T01:03:32;101241.72;;;17.66;100.00
62708;BME280;48769;51.624;5.886;2023-07-20T01:08:39;101233.34;;;17.71;100.00
62708;BME280;48769;51.624;5.886;2023-07-20T01:11:18;101230.66;;;17.71;100.00
62708;BME280;48769;51.624;5.886;2023-07-20T01:13:45;101235.78;;;17.74;100.00
62708;BME280;48769;51.624;5.886;2023-07-20T01:16:10;101235.06;;;17.72;100.00
62708;BME280;48769;51.624;5.886;2023-07-20T01:18:36;101235.78;;;17.74;100.00
62708;BME280;48769;51.624;5.886;2023-07-20T01:21:06;101240.09;;;17.77;100.00
62708;BME280;48769;51.624;5.886;2023-07-20T01:24:10;101232.25;;;17.73;100.00
62708;BME280;48769;51.624;5.886;2023-07-20T01:32:23;101240.47;;;17.59;100.00
62708;BME280;48769;51.624;5.886;2023-07-20T01:34:52;101247.63;;;17.59;100.00
62708;BME280;48769;51.624;5.886;2023-07-20T01:37:20;101234.28;;;17.59;100.00
62708;BME280;48769;51.624;5.886;2023-07-20T01:39:46;101230.75;;;17.58;100.00
62708;BME280;48769;51.624;5.886;2023-07-20T01:42:12;101232.69;;;17.56;100.00
62708;BME280;48769;51.624;5.886;2023-07-20T01:44:37;101238.03;;;17.56;100.00
62708;BME280;48769;51.624;5.886;2023-07-20T01:47:03;101234.50;;;17.56;100.00
62708;BME280;48769;51.624;5.886;2023-07-20T01:49:29;101230.00;;;17.56;100.00
62708;BME280;48769;51.624;5.886;2023-07-20T01:51:54;101230.00;;;17.56;100.00
62708;BME280;48769;51.624;5.886;2023-07-20T01:54:19;101228.41;;;17.53;100.00
62708;BME280;48769;51.624;5.886;2023-07-20T01:56:46;101232.06;;;17.52;100.00
62708;BME280;48769;51.624;5.886;2023-07-20T01:59:11;101236.56;;;17.52;100.00
62708;BME280;48769;51.624;5.886;2023-07-20T02:01:37;101234.00;;;17.50;100.00
62708;BME280;48769;51.624;5.886;2023-07-20T02:04:02;101236.78;;;17.49;100.00
62708;BME280;48769;51.624;5.886;2023-07-20T02:06:27;101244.19;;;17.45;100.00
62708;BME280;48769;51.624;5.886;2023-07-20T02:08:53;101246.56;;;17.37;100.00
62708;BME280;48769;51.624;5.886;2023-07-20T02:11:18;101253.72;;;17.37;100.00
62708;BME280;48769;51.624;5.886;2023-07-20T02:13:43;101254.56;;;17.37;100.00
62708;BME280;48769;51.624;5.886;2023-07-20T02:16:08;101247.53;;;17.36;100.00
62708;BME280;48769;51.624;5.886;2023-07-20T02:18:34;101254.56;;;17.37;100.00
62708;BME280;48769;51.624;5.886;2023-07-20T02:21:00;101251.78;;;17.39;100.00
62708;BME280;48769;51.624;5.886;2023-07-20T02:23:25;101254.34;;;17.40;100.00
62708;BME280;48769;51.624;5.886;2023-07-20T02:25:50;101250.69;;;17.41;100.00
62708;BME280;48769;51.624;5.886;2023-07-20T02:28:16;101257.75;;;17.42;100.00
62708;BME280;48769;51.624;5.886;2023-07-20T02:30:41;101261.16;;;17.44;100.00
62708;BME280;48769;51.624;5.886;2023-07-20T02:33:07;101253.88;;;17.46;100.00
62708;BME280;48769;51.624;5.886;2023-07-20T02:35:32;101247.69;;;17.46;100.00
62708;BME280;48769;51.624;5.886;2023-07-20T02:37:57;101249.53;;;17.45;100.00
62708;BME280;48769;51.624;5.886;2023-07-20T02:40:23;101253.25;;;17.43;100.00
62708;BME280;48769;51.624;5.886;2023-07-20T02:42:48;101253.25;;;17.43;100.00
62708;BME280;48769;51.624;5.886;2023-07-20T02:45:14;101257.53;;;17.45;100.00
62708;BME280;48769;51.624;5.886;2023-07-20T02:47:39;101256.66;;;17.45;100.00
62708;BME280;48769;51.624;5.886;2023-07-20T02:50:08;101262.22;;;17.42;100.00
62708;BME280;48769;51.624;5.886;2023-07-20T02:52:34;101262.47;;;17.39;100.00
62708;BME280;48769;51.624;5.886;2023-07-20T02:54:59;101264.41;;;17.37;100.00
62708;BME280;48769;51.624;5.886;2023-07-20T02:57:25;101268.25;;;17.33;100.00
62708;BME280;48769;51.624;5.886;2023-07-20T02:59:50;101265.91;;;17.28;100.00
62708;BME280;48769;51.624;5.886;2023-07-20T03:02:15;101271.47;;;17.25;100.00
62708;BME280;48769;51.624;5.886;2023-07-20T03:04:41;101277.78;;;17.24;100.00
62708;BME280;48769;51.624;5.886;2023-07-20T03:07:06;101277.78;;;17.24;100.00
62708;BME280;48769;51.624;5.886;2023-07-20T03:09:32;101280.47;;;17.24;100.00
62708;BME280;48769;51.624;5.886;2023-07-20T03:11:58;101276.81;;;17.25;100.00
62708;BME280;48769;51.624;5.886;2023-07-20T03:14:23;101285.66;;;17.25;100.00
62708;BME280;48769;51.624;5.886;2023-07-20T03:16:49;101289.31;;;17.24;100.00
62708;BME280;48769;51.624;5.886;2023-07-20T03:19:14;101288.59;;;17.22;100.00
62708;BME280;48769;51.624;5.886;2023-07-20T03:21:39;101298.41;;;17.22;100.00
62708;BME280;48769;51.624;5.886;2023-07-20T03:24:07;101292.44;;;17.18;100.00
62708;BME280;48769;51.624;5.886;2023-07-20T03:26:33;101297.88;;;17.17;100.00
62708;BME280;48769;51.624;5.886;2023-07-20T03:28:58;101302.47;;;17.15;100.00
62708;BME280;48769;51.624;5.886;2023-07-20T03:31:23;101300.78;;;17.14;100.00
62708;BME280;48769;51.624;5.886;2023-07-20T03:33:49;101299.53;;;17.07;100.00
62708;BME280;48769;51.624;5.886;2023-07-20T03:36:14;101307.63;;;17.05;100.00
62708;BME280;48769;51.624;5.886;2023-07-20T03:38:39;101305.91;;;17.04;100.00
62708;BME280;48769;51.624;5.886;2023-07-20T03:41:04;101313.38;;;16.99;100.00
62708;BME280;48769;51.624;5.886;2023-07-20T03:43:30;101316.28;;;16.96;100.00
62708;BME280;48769;51.624;5.886;2023-07-20T03:45:55;101307.63;;;16.92;100.00
62708;BME280;48769;51.624;5.886;2023-07-20T03:48:22;101310.22;;;16.94;100.00
62708;BME280;48769;51.624;5.886;2023-07-20T03:50:52;101302.28;;;16.92;100.00
62708;BME280;48769;51.624;5.886;2023-07-20T03:53:18;101309.59;;;16.90;100.00
62708;BME280;48769;51.624;5.886;2023-07-20T03:55:45;101309.03;;;16.85;100.00
62708;BME280;48769;51.624;5.886;2023-07-20T03:58:12;101307.00;;;16.76;100.00
62708;BME280;48769;51.624;5.886;2023-07-20T04:00:37;101313.50;;;16.72;100.00
62708;BME280;48769;51.624;5.886;2023-07-20T04:03:03;101314.47;;;16.71;100.00
62708;BME280;48769;51.624;5.886;2023-07-20T04:05:28;101313.59;;;16.70;100.00
62708;BME280;48769;51.624;5.886;2023-07-20T04:07:53;101311.88;;;16.69;100.00
62708;BME280;48769;51.624;5.886;2023-07-20T04:10:19;101314.69;;;16.68;100.00
62708;BME280;48769;51.624;5.886;2023-07-20T04:12:45;101319.16;;;16.67;100.00
62708;BME280;48769;51.624;5.886;2023-07-20T04:15:12;101315.63;;;16.67;100.00
62708;BME280;48769;51.624;5.886;2023-07-20T04:17:38;101321.94;;;16.66;100.00
62708;BME280;48769;51.624;5.886;2023-07-20T04:20:04;101316.81;;;16.63;100.00
62708;BME280;48769;51.624;5.886;2023-07-20T04:22:30;101313.38;;;16.60;100.00
62708;BME280;48769;51.624;5.886;2023-07-20T04:24:56;101321.50;;;16.59;100.00
62708;BME280;48769;51.624;5.886;2023-07-20T04:27:21;101320.66;;;16.58;100.00
62708;BME280;48769;51.624;5.886;2023-07-20T04:29:46;101322.47;;;16.58;100.00
62708;BME280;48769;51.624;5.886;2023-07-20T04:32:12;101330.47;;;16.58;100.00
62708;BME280;48769;51.624;5.886;2023-07-20T04:34:37;101330.47;;;16.58;100.00
62708;BME280;48769;51.624;5.886;2023-07-20T04:37:04;101329.63;;;16.57;100.00
62708;BME280;48769;51.624;5.886;2023-07-20T04:39:29;101328.75;;;16.57;100.00
62708;BME280;48769;51.624;5.886;2023-07-20T04:41:55;101328.66;;;16.58;100.00
62708;BME280;48769;51.624;5.886;2023-07-20T04:44:20;101320.66;;;16.58;100.00
62708;BME280;48769;51.624;5.886;2023-07-20T04:46:46;101323.19;;;16.60;100.00
62708;BME280;48769;51.624;5.886;2023-07-20T04:49:11;101334.50;;;16.64;100.00
62708;BME280;48769;51.624;5.886;2023-07-20T04:51:38;101332.59;;;16.66;100.00
62708;BME280;48769;51.624;5.886;2023-07-20T04:54:03;101328.88;;;16.68;100.00
62708;BME280;48769;51.624;5.886;2023-07-20T04:56:29;101321.50;;;16.72;100.00
62708;BME280;48769;51.624;5.886;2023-07-20T04:58:54;101331.03;;;16.76;100.00
62708;BME280;48769;51.624;5.886;2023-07-20T05:01:19;101334.97;;;16.83;100.00
62708;BME280;48769;51.624;5.886;2023-07-20T05:03:45;101333.59;;;16.90;100.00
62708;BME280;48769;51.624;5.886;2023-07-20T05:06:10;101334.09;;;16.95;100.00
62708;BME280;48769;51.624;5.886;2023-07-20T05:08:35;101333.31;;;17.19;100.00
62708;BME280;48769;51.624;5.886;2023-07-20T05:11:01;101330.97;;;17.64;100.00
62708;BME280;48769;51.624;5.886;2023-07-20T05:13:26;101333.84;;;17.97;100.00
62708;BME280;48769;51.624;5.886;2023-07-20T05:15:52;101343.06;;;18.29;100.00
62708;BME280;48769;51.624;5.886;2023-07-20T05:18:18;101337.69;;;18.64;100.00
62708;BME280;48769;51.624;5.886;2023-07-20T05:20:47;101343.34;;;18.95;100.00
62708;BME280;48769;51.624;5.886;2023-07-20T05:23:13;101344.44;;;19.03;100.00
62708;BME280;48769;51.624;5.886;2023-07-20T05:25:38;101346.88;;;19.06;100.00
62708;BME280;48769;51.624;5.886;2023-07-20T05:28:04;101347.47;;;18.76;100.00
62708;BME280;48769;51.624;5.886;2023-07-20T05:30:29;101357.59;;;18.49;100.00
62708;BME280;48769;51.624;5.886;2023-07-20T05:32:55;101352.16;;;18.26;100.00
62708;BME280;48769;51.624;5.886;2023-07-20T05:35:20;101360.13;;;18.04;100.00
62708;BME280;48769;51.624;5.886;2023-07-20T05:37:45;101355.47;;;17.94;100.00
62708;BME280;48769;51.624;5.886;2023-07-20T05:40:12;101359.66;;;17.86;100.00
62708;BME280;48769;51.624;5.886;2023-07-20T05:42:38;101359.03;;;17.82;100.00
62708;BME280;48769;51.624;5.886;2023-07-20T05:45:04;101353.06;;;17.79;100.00
62708;BME280;48769;51.624;5.886;2023-07-20T05:47:30;101357.44;;;17.80;100.00
62708;BME280;48769;51.624;5.886;2023-07-20T05:49:55;101360.38;;;18.12;100.00
62708;BME280;48769;51.624;5.886;2023-07-20T05:52:20;101359.97;;;18.29;100.00
62708;BME280;48769;51.624;5.886;2023-07-20T05:54:45;101362.09;;;19.06;100.00
62708;BME280;48769;51.624;5.886;2023-07-20T05:57:11;101367.94;;;19.22;100.00
62708;BME280;48769;51.624;5.886;2023-07-20T05:59:36;101369.28;;;19.05;100.00
62708;BME280;48769;51.624;5.886;2023-07-20T06:02:03;101365.75;;;18.82;100.00
62708;BME280;48769;51.624;5.886;2023-07-20T06:04:29;101363.22;;;18.57;100.00
62708;BME280;48769;51.624;5.886;2023-07-20T06:06:54;101370.50;;;18.55;100.00
62708;BME280;48769;51.624;5.886;2023-07-20T06:09:19;101373.78;;;18.47;100.00
62708;BME280;48769;51.624;5.886;2023-07-20T06:11:45;101368.72;;;18.31;100.00
62708;BME280;48769;51.624;5.886;2023-07-20T06:14:10;101383.09;;;18.30;100.00
62708;BME280;48769;51.624;5.886;2023-07-20T06:16:36;101385.16;;;18.38;100.00
62708;BME280;48769;51.624;5.886;2023-07-20T06:19:01;101390.13;;;18.66;100.00
62708;BME280;48769;51.624;5.886;2023-07-20T06:21:26;101392.59;;;19.82;100.00
62708;BME280;48769;51.624;5.886;2023-07-20T06:23:52;101396.34;;;20.34;100.00
62708;BME280;48769;51.624;5.886;2023-07-20T06:26:17;101395.66;;;20.53;100.00
62708;BME280;48769;51.624;5.886;2023-07-20T06:28:42;101399.97;;;20.12;100.00
62708;BME280;48769;51.624;5.886;2023-07-20T06:31:08;101392.50;;;19.61;100.00
62708;BME280;48769;51.624;5.886;2023-07-20T06:33:33;101402.69;;;20.33;100.00
62708;BME280;48769;51.624;5.886;2023-07-20T06:36:00;101389.63;;;21.33;100.00
62708;BME280;48769;51.624;5.886;2023-07-20T06:38:25;101388.97;;;21.91;100.00
62708;BME280;48769;51.624;5.886;2023-07-20T06:40:51;101387.72;;;22.44;100.00
62708;BME280;48769;51.624;5.886;2023-07-20T06:43:16;101375.75;;;22.95;100.00
62708;BME280;48769;51.624;5.886;2023-07-20T06:45:42;101377.25;;;23.44;100.00
62708;BME280;48769;51.624;5.886;2023-07-20T06:48:07;101382.34;;;23.75;100.00
62708;BME280;48769;51.624;5.886;2023-07-20T06:50:33;101372.41;;;24.11;100.00
62708;BME280;48769;51.624;5.886;2023-07-20T06:52:59;101376.28;;;23.73;100.00
62708;BME280;48769;51.624;5.886;2023-07-20T06:55:26;101386.09;;;22.90;100.00
62708;BME280;48769;51.624;5.886;2023-07-20T06:57:51;101386.97;;;22.12;100.00
62708;BME280;48769;51.624;5.886;2023-07-20T07:00:17;101391.19;;;21.76;100.00
62708;BME280;48769;51.624;5.886;2023-07-20T07:02:42;101389.16;;;21.49;100.00
62708;BME280;48769;51.624;5.886;2023-07-20T07:05:08;101397.50;;;21.25;100.00
62708;BME280;48769;51.624;5.886;2023-07-20T07:07:33;101396.19;;;20.89;100.00
62708;BME280;48769;51.624;5.886;2023-07-20T07:10:00;101401.19;;;20.51;100.00
62708;BME280;48769;51.624;5.886;2023-07-20T07:12:25;101392.88;;;20.11;100.00
62708;BME280;48769;51.624;5.886;2023-07-20T07:14:50;101401.00;;;19.89;100.00
62708;BME280;48769;51.624;5.886;2023-07-20T07:17:16;101399.41;;;19.97;100.00
62708;BME280;48769;51.624;5.886;2023-07-20T07:19:41;101397.47;;;19.99;100.00
62708;BME280;48769;51.624;5.886;2023-07-20T07:22:07;101398.72;;;19.84;100.00
62708;BME280;48769;51.624;5.886;2023-07-20T07:24:32;101393.22;;;19.85;100.00
62708;BME280;48769;51.624;5.886;2023-07-20T07:26:59;101400.53;;;19.83;100.00
62708;BME280;48769;51.624;5.886;2023-07-20T07:29:25;101395.03;;;19.96;100.00
62708;BME280;48769;51.624;5.886;2023-07-20T07:31:50;101403.13;;;20.17;100.00
62708;BME280;48769;51.624;5.886;2023-07-20T07:34:16;101407.78;;;20.15;100.00
62708;BME280;48769;51.624;5.886;2023-07-20T07:36:41;101409.53;;;19.94;100.00
62708;BME280;48769;51.624;5.886;2023-07-20T07:39:06;101405.22;;;19.70;100.00
62708;BME280;48769;51.624;5.886;2023-07-20T07:41:32;101396.16;;;19.82;100.00
62708;BME280;48769;51.624;5.886;2023-07-20T07:43:57;101402.91;;;20.09;100.00
62708;BME280;48769;51.624;5.886;2023-07-20T07:46:22;101399.06;;;20.23;100.00
62708;BME280;48769;51.624;5.886;2023-07-20T07:48:47;101404.94;;;20.49;100.00
62708;BME280;48769;51.624;5.886;2023-07-20T07:51:13;101408.81;;;20.56;100.00
62708;BME280;48769;51.624;5.886;2023-07-20T07:53:39;101403.50;;;20.45;100.00
62708;BME280;48769;51.624;5.886;2023-07-20T07:56:07;101398.69;;;20.27;100.00
62708;BME280;48769;51.624;5.886;2023-07-20T07:58:32;101404.50;;;20.12;100.00
62708;BME280;48769;51.624;5.886;2023-07-20T08:00:58;101407.50;;;19.86;100.00
62708;BME280;48769;51.624;5.886;2023-07-20T08:03:23;101413.94;;;19.83;100.00
62708;BME280;48769;51.624;5.886;2023-07-20T08:05:49;101416.88;;;19.80;100.00
62708;BME280;48769;51.624;5.886;2023-07-20T08:08:14;101425.41;;;19.74;100.00
62708;BME280;48769;51.624;5.886;2023-07-20T08:10:40;101431.50;;;19.65;100.00
62708;BME280;48769;51.624;5.886;2023-07-20T08:13:05;101431.72;;;19.62;100.00
62708;BME280;48769;51.624;5.886;2023-07-20T08:15:30;101427.09;;;19.75;100.00
62708;BME280;48769;51.624;5.886;2023-07-20T08:17:56;101430.69;;;20.08;100.00
62708;BME280;48769;51.624;5.886;2023-07-20T08:20:21;101428.34;;;20.47;100.00
62708;BME280;48769;51.624;5.886;2023-07-20T08:22:52;101423.81;;;20.80;100.00
62708;BME280;48769;51.624;5.886;2023-07-20T08:25:18;101417.78;;;21.08;100.00
62708;BME280;48769;51.624;5.886;2023-07-20T08:27:43;101427.25;;;20.82;100.00
62708;BME280;48769;51.624;5.886;2023-07-20T08:30:11;101420.09;;;20.92;100.00
62708;BME280;48769;51.624;5.886;2023-07-20T08:32:36;101414.59;;;21.24;100.00
62708;BME280;48769;51.624;5.886;2023-07-20T08:35:02;101403.28;;;21.51;100.00
62708;BME280;48769;51.624;5.886;2023-07-20T08:37:27;101408.16;;;21.67;100.00
62708;BME280;48769;51.624;5.886;2023-07-20T08:39:52;101410.59;;;21.80;100.00
62708;BME280;48769;51.624;5.886;2023-07-20T08:42:17;101408.16;;;21.77;100.00
62708;BME280;48769;51.624;5.886;2023-07-20T08:44:45;101411.84;;;21.66;100.00
62708;BME280;48769;51.624;5.886;2023-07-20T08:47:13;101417.56;;;21.92;100.00
62708;BME280;48769;51.624;5.886;2023-07-20T08:49:41;101408.09;;;21.98;99.81
62708;BME280;48769;51.624;5.886;2023-07-20T08:52:06;101406.47;;;21.76;97.49
62708;BME280;48769;51.624;5.886;2023-07-20T08:54:33;101408.94;;;21.48;100.00
62708;BME280;48769;51.624;5.886;2023-07-20T08:57:01;101408.97;;;21.27;100.00
62708;BME280;48769;51.624;5.886;2023-07-20T08:59:29;101403.09;;;21.12;100.00
62708;BME280;48769;51.624;5.886;2023-07-20T09:01:56;101404.44;;;20.97;100.00
62708;BME280;48769;51.624;5.886;2023-07-20T09:04:22;101407.50;;;20.92;100.00
62708;BME280;48769;51.624;5.886;2023-07-20T09:06:49;101410.44;;;21.10;100.00
62708;BME280;48769;51.624;5.886;2023-07-20T09:09:14;101397.81;;;21.32;100.00
62708;BME280;48769;51.624;5.886;2023-07-20T09:11:40;101390.53;;;21.43;97.68
62708;BME280;48769;51.624;5.886;2023-07-20T09:14:06;101405.44;;;21.57;100.00
62708;BME280;48769;51.624;5.886;2023-07-20T09:16:32;101385.25;;;21.73;95.51
62708;BME280;48769;51.624;5.886;2023-07-20T09:19:01;101386.09;;;21.83;96.64
62708;BME280;48769;51.624;5.886;2023-07-20T09:21:29;101387.53;;;21.97;95.17
62708;BME280;48769;51.624;5.886;2023-07-20T09:23:56;101388.47;;;22.16;93.90
62708;BME280;48769;51.624;5.886;2023-07-20T09:26:21;101383.91;;;22.27;92.03
62708;BME280;48769;51.624;5.886;2023-07-20T09:28:53;101386.03;;;22.33;92.75
62708;BME280;48769;51.624;5.886;2023-07-20T09:31:21;101371.69;;;22.03;88.43
62708;BME280;48769;51.624;5.886;2023-07-20T09:33:48;101379.91;;;21.92;90.61
62708;BME280;48769;51.624;5.886;2023-07-20T09:36:14;101374.72;;;21.60;87.77
62708;BME280;48769;51.624;5.886;2023-07-20T09:38:41;101376.41;;;21.51;88.05
62708;BME280;48769;51.624;5.886;2023-07-20T09:41:06;101379.25;;;21.50;90.44
62708;BME280;48769;51.624;5.886;2023-07-20T09:43:34;101371.44;;;21.46;90.52
62708;BME280;48769;51.624;5.886;2023-07-20T09:45:59;101370.16;;;21.41;90.36
62708;BME280;48769;51.624;5.886;2023-07-20T09:48:25;101367.50;;;21.20;89.42
62708;BME280;48769;51.624;5.886;2023-07-20T09:50:52;101375.63;;;21.09;91.10
62708;BME280;48769;51.624;5.886;2023-07-20T09:53:19;101373.06;;;20.97;92.86
62708;BME280;48769;51.624;5.886;2023-07-20T09:55:46;101375.59;;;20.99;93.89
62708;BME280;48769;51.624;5.886;2023-07-20T09:58:12;101368.25;;;21.01;95.50
62708;BME280;48769;51.624;5.886;2023-07-20T10:00:40;101380.69;;;21.02;98.50
62708;BME280;48769;51.624;5.886;2023-07-20T10:03:06;101374.09;;;21.06;99.21
62708;BME280;48769;51.624;5.886;2023-07-20T10:05:43;101368.25;;;21.01;95.52
62708;BME280;48769;51.624;5.886;2023-07-20T10:08:12;101381.97;;;20.98;97.74
62708;BME280;48769;51.624;5.886;2023-07-20T10:10:39;101386.66;;;21.06;98.95
62708;BME280;48769;51.624;5.886;2023-07-20T10:13:10;101381.09;;;21.28;98.81
62708;BME280;48769;51.624;5.886;2023-07-20T10:15:54;101375.16;;;21.24;95.54
62708;BME280;48769;51.624;5.886;2023-07-20T10:21:29;101369.88;;;21.13;95.47
62708;BME280;48769;51.624;5.886;2023-07-20T10:23:56;101375.34;;;21.33;95.68
62708;BME280;48769;51.624;5.886;2023-07-20T10:26:22;101372.41;;;21.36;94.02
62708;BME280;48769;51.624;5.886;2023-07-20T10:28:47;101363.38;;;21.46;93.38
62708;BME280;48769;51.624;5.886;2023-07-20T10:31:13;101368.06;;;21.54;95.22
62708;BME280;48769;51.624;5.886;2023-07-20T10:33:39;101370.19;;;21.60;93.78
62708;BME280;48769;51.624;5.886;2023-07-20T10:36:05;101373.06;;;21.68;93.91
62708;BME280;48769;51.624;5.886;2023-07-20T10:41:40;101367.84;;;21.96;92.23
62708;BME280;48769;51.624;5.886;2023-07-20T10:44:09;101360.63;;;21.87;91.80
62708;BME280;48769;51.624;5.886;2023-07-20T10:49:04;101361.34;;;21.99;94.78
62708;BME280;48769;51.624;5.886;2023-07-20T10:51:39;101347.09;;;22.27;92.62
62708;BME280;48769;51.624;5.886;2023-07-20T10:54:07;101357.28;;;22.43;90.65
62708;BME280;48769;51.624;5.886;2023-07-20T10:56:33;101343.38;;;22.48;89.17
62708;BME280;48769;51.624;5.886;2023-07-20T10:58:59;101343.34;;;22.57;87.02
62708;BME280;48769;51.624;5.886;2023-07-20T11:01:28;101342.25;;;22.50;87.69
62708;BME280;48769;51.624;5.886;2023-07-20T11:03:57;101339.66;;;22.58;86.90
62708;BME280;48769;51.624;5.886;2023-07-20T11:09:13;101331.13;;;22.73;85.57
62708;BME280;48769;51.624;5.886;2023-07-20T11:11:41;101332.06;;;22.91;83.75
62708;BME280;48769;51.624;5.886;2023-07-20T11:14:19;101329.44;;;22.72;82.32
62708;BME280;48769;51.624;5.886;2023-07-20T11:16:46;101328.88;;;22.58;82.54
62708;BME280;48769;51.624;5.886;2023-07-20T11:19:20;101328.25;;;22.84;85.43
62708;BME280;48769;51.624;5.886;2023-07-20T11:21:47;101327.13;;;22.77;84.24
62708;BME280;48769;51.624;5.886;2023-07-20T11:24:15;101327.03;;;22.69;83.67
62708;BME280;48769;51.624;5.886;2023-07-20T11:26:58;101314.56;;;22.58;83.86
62708;BME280;48769;51.624;5.886;2023-07-20T11:29:23;101324.94;;;22.53;86.59
62708;BME280;48769;51.624;5.886;2023-07-20T11:31:51;101327.19;;;22.57;86.87
62708;BME280;48769;51.624;5.886;2023-07-20T11:34:18;101322.81;;;22.56;84.96
62708;BME280;48769;51.624;5.886;2023-07-20T11:36:48;101320.41;;;22.53;85.53
62708;BME280;48769;51.624;5.886;2023-07-20T11:39:16;101320.72;;;22.40;82.94
62708;BME280;48769;51.624;5.886;2023-07-20T11:41:52;101306.84;;;22.26;82.39
62708;BME280;48769;51.624;5.886;2023-07-20T11:44:19;101313.38;;;22.23;85.02
62708;BME280;48769;51.624;5.886;2023-07-20T11:46:45;101308.00;;;22.33;87.76
62708;BME280;48769;51.624;5.886;2023-07-20T11:49:11;101309.50;;;22.45;86.48
62708;BME280;48769;51.624;5.886;2023-07-20T11:51:38;101305.69;;;22.48;88.06
62708;BME280;48769;51.624;5.886;2023-07-20T11:54:06;101306.38;;;22.59;89.01
62708;BME280;48769;51.624;5.886;2023-07-20T11:56:32;101301.06;;;22.68;87.48
62708;BME280;48769;51.624;5.886;2023-07-20T11:58:58;101292.31;;;22.66;84.72
62708;BME280;48769;51.624;5.886;2023-07-20T12:01:26;101283.00;;;22.50;83.43
62708;BME280;48769;51.624;5.886;2023-07-20T12:03:59;101292.63;;;22.53;87.25
62708;BME280;48769;51.624;5.886;2023-07-20T12:06:26;101288.06;;;22.63;85.32
62708;BME280;48769;51.624;5.886;2023-07-20T12:08:55;101288.63;;;22.67;86.16
62708;BME280;48769;51.624;5.886;2023-07-20T12:11:50;101281.09;;;22.70;84.02
62708;BME280;48769;51.624;5.886;2023-07-20T12:14:15;101288.72;;;22.75;83.39
62708;BME280;48769;51.624;5.886;2023-07-20T12:16:41;101285.22;;;22.64;80.75
62708;BME280;48769;51.624;5.886;2023-07-20T12:19:11;101280.41;;;22.58;81.54
62708;BME280;48769;51.624;5.886;2023-07-20T12:21:39;101279.31;;;22.42;80.37
62708;BME280;48769;51.624;5.886;2023-07-20T12:24:05;101280.16;;;22.42;81.67
62708;BME280;48769;51.624;5.886;2023-07-20T12:26:32;101285.28;;;22.45;83.50
62708;BME280;48769;51.624;5.886;2023-07-20T12:28:58;101289.22;;;22.51;85.61
62708;BME280;48769;51.624;5.886;2023-07-20T12:31:25;101281.03;;;22.52;84.98
62708;BME280;48769;51.624;5.886;2023-07-20T12:33:51;101279.31;;;22.51;84.40
62708;BME280;48769;51.624;5.886;2023-07-20T12:36:18;101281.72;;;22.54;83.47
62708;BME280;48769;51.624;5.886;2023-07-20T12:38:43;101279.31;;;22.51;81.06
62708;BME280;48769;51.624;5.886;2023-07-20T12:41:10;101271.97;;;22.44;82.47
62708;BME280;48769;51.624;5.886;2023-07-20T12:43:42;101281.91;;;22.43;84.56
62708;BME280;48769;51.624;5.886;2023-07-20T12:46:09;101280.47;;;22.39;83.45
62708;BME280;48769;51.624;5.886;2023-07-20T12:48:36;101277.94;;;22.37;83.61
62708;BME280;48769;51.624;5.886;2023-07-20T12:51:06;101273.56;;;22.27;82.14
62708;BME280;48769;51.624;5.886;2023-07-20T12:53:32;101275.97;;;22.30;84.58
62708;BME280;48769;51.624;5.886;2023-07-20T12:55:58;101270.69;;;22.38;85.15
62708;BME280;48769;51.624;5.886;2023-07-20T12:58:23;101279.75;;;22.47;88.03